Time;durP1;ratioP1;P1;durP2;ratioP2;P2;SDS_P1;SDS_P2;PMS_P1;PMS_P2;Temp;Humidity;BMP_temperature;BMP_pressure;BME280_temperature;BME280_humidity;BME280_pressure;Samples;Min_cycle;Max_cycle;Signal;HPM_P1;HPM_P2
2021/12/28 00:00:10;;;;;;;1583.07;759.33;;;;;;;;;;4991688;28;20073;-80
2021/12/28 00:02:36;;;;;;;1999.90;999.90;;;;;;;;;;4972109;28;20030;-80
2021/12/28 00:05:02;;;;;;;1999.90;999.90;;;;;;;;;;4962882;28;20065;-80
2021/12/28 00:07:27;;;;;;;1999.90;999.90;;;;;;;;;;4978363;28;20029;-80
2021/12/28 00:09:52;;;;;;;1999.90;999.90;;;;;;;;;;4978850;28;20030;-80
2021/12/28 00:12:18;;;;;;;1999.90;999.90;;;;;;;;;;4978499;28;20057;-80
2021/12/28 00:15:03;;;;;;;1999.90;999.90;;;;;;;;;;4978428;28;20123;-80
2021/12/28 00:20:13;;;;;;;1999.90;999.90;;;;;;;;;;4983208;28;20036;-80
2021/12/28 00:22:38;;;;;;;1999.90;999.90;;;;;;;;;;4958621;28;20030;-80
2021/12/28 00:25:05;;;;;;;1999.90;999.90;;;;;;;;;;4959522;28;20069;-81
2021/12/28 00:27:30;;;;;;;1999.90;999.90;;;;;;;;;;4992273;28;20148;-80
2021/12/28 00:29:56;;;;;;;1999.90;999.90;;;;;;;;;;4995094;28;20061;-80
2021/12/28 00:32:21;;;;;;;1999.90;999.90;;;;;;;;;;4978136;28;20392;-80
2021/12/28 00:34:46;;;;;;;1999.90;999.90;;;;;;;;;;4962598;28;20102;-80
2021/12/28 00:37:12;;;;;;;1999.90;999.90;;;;;;;;;;4962079;28;20030;-80
2021/12/28 00:39:37;;;;;;;1999.90;999.90;;;;;;;;;;4978168;28;20026;-80
2021/12/28 00:42:03;;;;;;;1999.90;999.90;;;;;;;;;;4978421;28;20030;-80
2021/12/28 00:44:29;;;;;;;1999.90;999.90;;;;;;;;;;4961748;28;20480;-80
2021/12/28 00:46:54;;;;;;;1999.90;999.90;;;;;;;;;;5010204;28;20484;-80
2021/12/28 00:49:19;;;;;;;1999.90;999.90;;;;;;;;;;4993764;28;20391;-80
2021/12/28 00:51:45;;;;;;;1999.90;999.90;;;;;;;;;;4992764;28;20026;-81
2021/12/28 00:54:10;;;;;;;1999.90;999.90;;;;;;;;;;4958962;28;20108;-80
2021/12/28 00:56:36;;;;;;;1999.90;999.90;;;;;;;;;;4949982;28;20109;-80
2021/12/28 00:59:01;;;;;;;1999.90;999.90;;;;;;;;;;4991112;28;20443;-81
2021/12/28 01:01:27;;;;;;;1999.90;999.90;;;;;;;;;;4977396;28;20101;-80
2021/12/28 01:03:52;;;;;;;1999.90;999.90;;;;;;;;;;5010635;28;20435;-80
2021/12/28 01:06:18;;;;;;;1999.90;999.90;;;;;;;;;;4952354;28;20416;-80
2021/12/28 01:08:43;;;;;;;1999.90;999.90;;;;;;;;;;4977752;28;20034;-81
2021/12/28 01:11:09;;;;;;;1999.90;999.90;;;;;;;;;;4994352;28;20042;-80
2021/12/28 01:13:34;;;;;;;1999.90;999.90;;;;;;;;;;4993797;28;20484;-80
2021/12/28 01:16:00;;;;;;;1999.90;999.90;;;;;;;;;;4993544;28;20084;-80
2021/12/28 01:18:25;;;;;;;1999.90;999.90;;;;;;;;;;4994004;28;20396;-81
2021/12/28 01:20:51;;;;;;;1999.90;999.90;;;;;;;;;;4993620;28;20030;-81
2021/12/28 01:23:18;;;;;;;1999.90;999.90;;;;;;;;;;4977691;28;20455;-81
2021/12/28 01:25:43;;;;;;;1999.90;999.90;;;;;;;;;;4961677;28;20029;-81
2021/12/28 01:28:09;;;;;;;1999.90;999.90;;;;;;;;;;4997943;28;20071;-82
2021/12/28 01:30:35;;;;;;;1593.53;759.80;;;;;;;;;;4981503;28;20384;-82
2021/12/28 01:33:01;;;;;;;1999.90;999.90;;;;;;;;;;4978212;28;20027;-82
2021/12/28 01:35:28;;;;;;;1999.90;999.90;;;;;;;;;;4964542;28;20068;-81
2021/12/28 01:37:53;;;;;;;1999.90;999.90;;;;;;;;;;4965643;28;20038;-82
2021/12/28 01:40:22;;;;;;;1999.90;999.90;;;;;;;;;;4997916;28;20119;-81
2021/12/28 01:43:14;;;;;;;1999.90;999.90;;;;;;;;;;4997928;28;20029;-81
2021/12/28 01:45:45;;;;;;;1999.90;999.90;;;;;;;;;;4966845;28;20727;-81
2021/12/28 01:48:13;;;;;;;1999.90;999.90;;;;;;;;;;4981371;28;20420;-81
2021/12/28 01:50:39;;;;;;;1999.90;999.90;;;;;;;;;;4979326;28;20122;-80
2021/12/28 01:53:05;;;;;;;1999.90;999.90;;;;;;;;;;4998132;28;20440;-81
2021/12/28 01:55:32;;;;;;;1999.90;999.90;;;;;;;;;;4946169;28;20089;-80
2021/12/28 01:57:57;;;;;;;1999.90;999.90;;;;;;;;;;4956160;28;20042;-81
2021/12/28 02:00:24;;;;;;;1999.90;999.90;;;;;;;;;;4977700;28;20031;-81
2021/12/28 02:02:50;;;;;;;1999.90;999.90;;;;;;;;;;4960251;28;20034;-81
2021/12/28 02:05:15;;;;;;;1999.90;999.90;;;;;;;;;;4981193;28;20384;-81
2021/12/28 02:07:41;;;;;;;1999.90;999.90;;;;;;;;;;4996021;28;20036;-81
2021/12/28 02:10:07;;;;;;;1999.90;999.90;;;;;;;;;;4981028;28;20080;-81
2021/12/28 02:12:32;;;;;;;1999.90;999.90;;;;;;;;;;4980338;28;20037;-81
2021/12/28 02:14:58;;;;;;;1999.90;999.90;;;;;;;;;;4980828;28;20427;-81
2021/12/28 02:17:23;;;;;;;1999.90;999.90;;;;;;;;;;4980286;28;20385;-81
2021/12/28 02:19:48;;;;;;;1999.90;999.90;;;;;;;;;;4980748;28;20489;-80
2021/12/28 02:22:14;;;;;;;1999.90;999.90;;;;;;;;;;4979854;28;20041;-80
2021/12/28 02:24:39;;;;;;;1999.90;999.90;;;;;;;;;;4997141;28;20038;-81
2021/12/28 02:27:05;;;;;;;1999.90;999.90;;;;;;;;;;4996942;28;20404;-80
2021/12/28 02:29:30;;;;;;;1999.90;999.90;;;;;;;;;;4976871;28;20084;-80
2021/12/28 02:31:56;;;;;;;1999.90;999.90;;;;;;;;;;4973596;28;20034;-80
2021/12/28 02:34:24;;;;;;;1999.90;999.90;;;;;;;;;;4960822;28;20030;-81
2021/12/28 02:36:49;;;;;;;1999.90;999.90;;;;;;;;;;4979221;28;20044;-80
2021/12/28 02:39:15;;;;;;;1999.90;999.90;;;;;;;;;;4992486;28;20034;-81
2021/12/28 02:41:40;;;;;;;1999.90;999.90;;;;;;;;;;4976761;28;20038;-81
2021/12/28 02:44:06;;;;;;;1999.90;999.90;;;;;;;;;;4961126;28;20109;-80
2021/12/28 02:46:31;;;;;;;1999.90;999.90;;;;;;;;;;4977510;28;20030;-81
2021/12/28 02:48:57;;;;;;;1999.90;999.90;;;;;;;;;;4963742;28;20040;-81
2021/12/28 02:51:22;;;;;;;1999.90;999.90;;;;;;;;;;4995856;28;20041;-80
2021/12/28 02:53:47;;;;;;;1999.90;999.90;;;;;;;;;;4980295;28;20056;-80
2021/12/28 02:56:14;;;;;;;1999.90;999.90;;;;;;;;;;4979910;28;20507;-80
2021/12/28 02:58:48;;;;;;;1999.90;999.90;;;;;;;;;;4980551;28;20030;-81
2021/12/28 03:01:16;;;;;;;1999.90;999.90;;;;;;;;;;4957153;28;20508;-80
2021/12/28 03:03:45;;;;;;;1999.90;999.90;;;;;;;;;;4995738;28;20026;-80
2021/12/28 03:06:12;;;;;;;1999.90;999.90;;;;;;;;;;4996405;28;20034;-80
2021/12/28 03:08:40;;;;;;;1999.90;999.90;;;;;;;;;;4996103;28;20030;-80
2021/12/28 03:11:06;;;;;;;1999.90;999.90;;;;;;;;;;4979392;28;20034;-81
2021/12/28 03:13:43;;;;;;;1999.90;999.90;;;;;;;;;;4979978;28;20026;-80
2021/12/28 03:16:08;;;;;;;1999.90;999.90;;;;;;;;;;4959410;28;20791;-80
2021/12/28 03:18:34;;;;;;;1999.90;999.90;;;;;;;;;;4976617;28;20040;-81
2021/12/28 03:20:59;;;;;;;1573.70;761.55;;;;;;;;;;4979288;28;20092;-81
2021/12/28 03:23:25;;;;;;;1999.90;999.90;;;;;;;;;;4963599;28;20045;-81
2021/12/28 03:25:51;;;;;;;1999.90;999.90;;;;;;;;;;4963017;28;20065;-80
2021/12/28 03:28:22;;;;;;;1999.90;999.90;;;;;;;;;;5011604;28;20512;-80
2021/12/28 03:30:48;;;;;;;1999.90;999.90;;;;;;;;;;4979488;28;20121;-81
2021/12/28 03:33:13;;;;;;;1999.90;999.90;;;;;;;;;;4995705;28;20096;-80
2021/12/28 03:35:39;;;;;;;1999.90;999.90;;;;;;;;;;4963396;28;20624;-81
2021/12/28 03:38:04;;;;;;;1999.90;999.90;;;;;;;;;;4962495;28;20056;-81
2021/12/28 03:40:30;;;;;;;1999.90;999.90;;;;;;;;;;4961848;28;20031;-80
2021/12/28 03:42:55;;;;;;;1999.90;999.90;;;;;;;;;;4976364;28;20088;-80
2021/12/28 03:45:21;;;;;;;1999.90;999.90;;;;;;;;;;4993981;28;20026;-81
2021/12/28 03:47:46;;;;;;;1999.90;999.90;;;;;;;;;;4978916;28;20034;-80
2021/12/28 03:50:12;;;;;;;1999.90;999.90;;;;;;;;;;4978364;28;20081;-80
2021/12/28 03:52:38;;;;;;;1999.90;999.90;;;;;;;;;;4975445;28;20045;-80
2021/12/28 03:55:04;;;;;;;1999.90;999.90;;;;;;;;;;4968810;28;20492;-80
2021/12/28 03:57:30;;;;;;;1999.90;999.90;;;;;;;;;;4994740;28;20034;-80
2021/12/28 03:59:55;;;;;;;1999.90;999.90;;;;;;;;;;5011448;28;20030;-80
2021/12/28 04:02:21;;;;;;;1999.90;999.90;;;;;;;;;;4978806;28;20069;-80
2021/12/28 04:04:46;;;;;;;1999.90;999.90;;;;;;;;;;4978948;28;20488;-80
2021/12/28 04:07:18;;;;;;;1999.90;999.90;;;;;;;;;;4995278;28;20357;-80
2021/12/28 04:12:15;;;;;;;1999.90;999.90;;;;;;;;;;4980185;28;20402;-80
2021/12/28 04:14:40;;;;;;;1999.90;999.90;;;;;;;;;;4959034;28;20030;-80
2021/12/28 04:17:06;;;;;;;1999.90;999.90;;;;;;;;;;4992998;28;20033;-80
2021/12/28 04:19:31;;;;;;;1999.90;999.90;;;;;;;;;;4978510;28;20033;-80
2021/12/28 04:21:57;;;;;;;1999.90;999.90;;;;;;;;;;4978349;28;20069;-80
2021/12/28 04:24:22;;;;;;;1215.35;543.55;;;;;;;;;;4958856;28;20042;-80
2021/12/28 04:26:48;;;;;;;1999.90;999.90;;;;;;;;;;4986773;28;20106;-80
2021/12/28 04:29:13;;;;;;;1999.90;999.90;;;;;;;;;;4994140;28;20113;-80
2021/12/28 04:31:38;;;;;;;1999.90;999.90;;;;;;;;;;5010575;28;20037;-80
2021/12/28 04:34:04;;;;;;;1999.90;999.90;;;;;;;;;;4988862;28;20416;-80
2021/12/28 04:36:30;;;;;;;1999.90;999.90;;;;;;;;;;4959010;28;20034;-80
2021/12/28 04:38:55;;;;;;;1999.90;999.90;;;;;;;;;;4958858;28;20069;-80
2021/12/28 04:41:21;;;;;;;1999.90;999.90;;;;;;;;;;4991846;28;20109;-81
2021/12/28 04:43:48;;;;;;;1999.90;999.90;;;;;;;;;;4994408;28;20034;-80
2021/12/28 04:46:13;;;;;;;1999.90;999.90;;;;;;;;;;4974412;28;20027;-81
2021/12/28 04:48:39;;;;;;;1999.90;999.90;;;;;;;;;;4974749;28;20050;-80
2021/12/28 04:51:04;;;;;;;1999.90;999.90;;;;;;;;;;4961864;28;20045;-80
2021/12/28 04:53:29;;;;;;;1999.90;999.90;;;;;;;;;;4994305;28;20030;-80
2021/12/28 04:55:55;;;;;;;1999.90;999.90;;;;;;;;;;4978793;28;20059;-80
2021/12/28 04:58:20;;;;;;;1999.90;999.90;;;;;;;;;;4978299;28;20423;-80
2021/12/28 05:00:47;;;;;;;1999.90;999.90;;;;;;;;;;4962382;28;20029;-80
2021/12/28 05:03:12;;;;;;;1999.90;999.90;;;;;;;;;;4968028;28;20036;-80
2021/12/28 05:05:43;;;;;;;1999.90;999.90;;;;;;;;;;4980863;28;20525;-80
2021/12/28 05:08:10;;;;;;;1999.90;999.90;;;;;;;;;;4980669;28;20038;-80
2021/12/28 05:10:36;;;;;;;1999.90;999.90;;;;;;;;;;4984240;28;20503;-79
2021/12/28 05:13:02;;;;;;;1999.90;999.90;;;;;;;;;;5000585;28;20022;-80
2021/12/28 05:15:27;;;;;;;1590.25;763.05;;;;;;;;;;5016329;28;20176;-80
2021/12/28 05:17:52;;;;;;;1999.90;999.90;;;;;;;;;;4968006;28;20036;-79
2021/12/28 05:20:18;;;;;;;1999.90;999.90;;;;;;;;;;5016799;28;20033;-79
2021/12/28 05:22:43;;;;;;;1999.90;999.90;;;;;;;;;;5000211;28;20108;-80
2021/12/28 05:25:09;;;;;;;1999.90;999.90;;;;;;;;;;4984327;28;20049;-80
2021/12/28 05:27:34;;;;;;;1999.90;999.90;;;;;;;;;;4964638;28;20023;-80
2021/12/28 05:30:00;;;;;;;1999.90;999.90;;;;;;;;;;4965314;28;20043;-80
2021/12/28 05:32:25;;;;;;;1999.90;999.90;;;;;;;;;;4961907;28;20038;-80
2021/12/28 05:34:51;;;;;;;1999.90;999.90;;;;;;;;;;4966508;28;20038;-80
2021/12/28 05:37:17;;;;;;;1276.28;537.35;;;;;;;;;;4972541;28;20041;-80
2021/12/28 05:39:42;;;;;;;1999.90;999.90;;;;;;;;;;4984372;28;20365;-80
2021/12/28 05:42:08;;;;;;;1999.90;999.90;;;;;;;;;;4980888;28;20117;-80
2021/12/28 05:44:33;;;;;;;1999.90;999.90;;;;;;;;;;4954683;28;20034;-80
2021/12/28 05:46:59;;;;;;;1999.90;999.90;;;;;;;;;;4983708;28;20120;-80
2021/12/28 05:49:24;;;;;;;1999.90;999.90;;;;;;;;;;5016550;28;20029;-79
2021/12/28 05:51:50;;;;;;;1999.90;999.90;;;;;;;;;;4980249;28;20042;-80
2021/12/28 05:54:17;;;;;;;1999.90;999.90;;;;;;;;;;4984205;28;20042;-80
2021/12/28 05:56:43;;;;;;;1999.90;999.90;;;;;;;;;;5000864;28;20021;-79
2021/12/28 05:59:08;;;;;;;1999.90;999.90;;;;;;;;;;4984071;28;20602;-79
2021/12/28 06:01:33;;;;;;;1999.90;999.90;;;;;;;;;;4983446;28;20034;-79
2021/12/28 06:03:59;;;;;;;1999.90;999.90;;;;;;;;;;5000629;28;20068;-79
2021/12/28 06:06:25;;;;;;;1660.68;768.95;;;;;;;;;;5000008;28;20041;-80
2021/12/28 06:08:51;;;;;;;1999.90;999.90;;;;;;;;;;4983951;28;20033;-80
2021/12/28 06:11:17;;;;;;;1999.90;999.90;;;;;;;;;;4967710;28;20064;-80
2021/12/28 06:13:42;;;;;;;1999.90;999.90;;;;;;;;;;4997104;28;20484;-80
2021/12/28 06:16:09;;;;;;;1999.90;999.90;;;;;;;;;;4996892;28;20037;-80
2021/12/28 06:18:34;;;;;;;1999.90;999.90;;;;;;;;;;4996532;28;20476;-79
2021/12/28 06:21:00;;;;;;;1999.90;999.90;;;;;;;;;;4996296;28;20021;-80
2021/12/28 06:23:25;;;;;;;1999.90;999.90;;;;;;;;;;4964922;28;20077;-80
2021/12/28 06:25:50;;;;;;;1999.90;999.90;;;;;;;;;;4980671;28;20033;-80
2021/12/28 06:28:16;;;;;;;1999.90;999.90;;;;;;;;;;4981016;28;20399;-79
2021/12/28 06:30:41;;;;;;;1999.90;999.90;;;;;;;;;;4980137;28;20105;-80
2021/12/28 06:33:07;;;;;;;1999.90;999.90;;;;;;;;;;4976807;28;20478;-80
2021/12/28 06:35:32;;;;;;;1999.90;999.90;;;;;;;;;;4963210;28;20044;-80
2021/12/28 06:37:58;;;;;;;1999.90;999.90;;;;;;;;;;4980624;28;20034;-79
2021/12/28 06:40:23;;;;;;;1999.90;999.90;;;;;;;;;;4964100;28;20026;-77
2021/12/28 06:42:49;;;;;;;1999.90;999.90;;;;;;;;;;4996818;28;20045;-78
2021/12/28 06:45:14;;;;;;;1999.90;999.90;;;;;;;;;;4979370;28;20030;-81
2021/12/28 06:47:40;;;;;;;1999.90;999.90;;;;;;;;;;4962107;28;20038;-82
2021/12/28 06:50:06;;;;;;;1999.90;999.90;;;;;;;;;;4993661;28;20092;-80
2021/12/28 06:52:31;;;;;;;1325.40;534.50;;;;;;;;;;5011625;28;20034;-81
2021/12/28 06:54:56;;;;;;;1999.90;999.90;;;;;;;;;;4996382;28;20041;-80
2021/12/28 06:57:22;;;;;;;1999.90;999.90;;;;;;;;;;4980001;28;20399;-76
2021/12/28 06:59:47;;;;;;;1999.90;999.90;;;;;;;;;;4996535;28;20387;-77
2021/12/28 07:02:13;;;;;;;1999.90;999.90;;;;;;;;;;5006343;28;20396;-77
2021/12/28 07:04:39;;;;;;;1999.90;999.90;;;;;;;;;;4974401;28;20408;-77
2021/12/28 07:07:04;;;;;;;1999.90;999.90;;;;;;;;;;4996004;28;20042;-77
2021/12/28 07:09:30;;;;;;;1999.90;999.90;;;;;;;;;;4996123;28;20168;-77
2021/12/28 07:11:55;;;;;;;1999.90;999.90;;;;;;;;;;4996167;28;20038;-77
2021/12/28 07:14:21;;;;;;;1999.90;999.90;;;;;;;;;;4976920;28;20496;-77
2021/12/28 07:16:46;;;;;;;1999.90;999.90;;;;;;;;;;4978067;28;20411;-77
2021/12/28 07:19:12;;;;;;;1999.90;999.90;;;;;;;;;;4976052;28;20076;-77
2021/12/28 07:21:38;;;;;;;1999.90;999.90;;;;;;;;;;4994454;28;20052;-77
2021/12/28 07:24:05;;;;;;;1999.90;999.90;;;;;;;;;;4979824;28;20041;-77
2021/12/28 07:26:30;;;;;;;1999.90;999.90;;;;;;;;;;4978935;28;20029;-77
2021/12/28 07:28:56;;;;;;;1999.90;999.90;;;;;;;;;;4979899;28;20029;-77
2021/12/28 07:31:21;;;;;;;1999.90;999.90;;;;;;;;;;4994920;28;20034;-77
2021/12/28 07:33:47;;;;;;;1999.90;999.90;;;;;;;;;;4992190;28;20388;-77
2021/12/28 07:36:12;;;;;;;1999.90;999.90;;;;;;;;;;4991841;28;20121;-77
2021/12/28 07:38:38;;;;;;;1999.90;999.90;;;;;;;;;;5009145;28;20042;-77
2021/12/28 07:41:03;;;;;;;1999.90;999.90;;;;;;;;;;4991612;28;20069;-78
2021/12/28 07:43:29;;;;;;;1999.90;999.90;;;;;;;;;;4992194;28;20384;-78
2021/12/28 07:45:54;;;;;;;1999.90;999.90;;;;;;;;;;4959397;28;20040;-77
2021/12/28 07:48:20;;;;;;;1999.90;999.90;;;;;;;;;;4991795;28;20030;-77
2021/12/28 07:50:45;;;;;;;1999.90;999.90;;;;;;;;;;4994527;28;20038;-77
2021/12/28 07:53:10;;;;;;;1999.90;999.90;;;;;;;;;;4995551;28;20068;-78
2021/12/28 07:55:36;;;;;;;1999.90;999.90;;;;;;;;;;4975308;28;20042;-78
2021/12/28 07:58:01;;;;;;;1999.90;999.90;;;;;;;;;;4995153;28;20042;-78
2021/12/28 08:00:28;;;;;;;1999.90;999.90;;;;;;;;;;4978318;28;20053;-78
2021/12/28 08:02:54;;;;;;;1999.90;999.90;;;;;;;;;;4979246;28;20108;-78
2021/12/28 08:06:34;;;;;;;1999.90;999.90;;;;;;;;;;5086597;27;20352;-79
2021/12/28 08:09:00;;;;;;;1999.90;999.90;;;;;;;;;;5087158;28;20024;-78
2021/12/28 08:11:25;;;;;;;1999.90;999.90;;;;;;;;;;5066593;28;20112;-78
2021/12/28 08:13:51;;;;;;;1999.90;999.90;;;;;;;;;;5044306;28;20033;-78
2021/12/28 08:16:16;;;;;;;1999.90;999.90;;;;;;;;;;5047006;28;20403;-78
2021/12/28 08:18:42;;;;;;;1999.90;999.90;;;;;;;;;;5030941;28;20022;-79
2021/12/28 08:21:07;;;;;;;1999.90;999.90;;;;;;;;;;5058231;28;20112;-78
2021/12/28 08:23:33;;;;;;;1999.90;999.90;;;;;;;;;;5032049;28;20037;-78
2021/12/28 08:25:58;;;;;;;1999.90;999.90;;;;;;;;;;5077955;28;20081;-78
2021/12/28 08:28:24;;;;;;;1999.90;999.90;;;;;;;;;;5054017;28;20040;-78
2021/12/28 08:30:49;;;;;;;1999.90;999.90;;;;;;;;;;5042550;28;20033;-78
2021/12/28 08:33:14;;;;;;;1999.90;999.90;;;;;;;;;;5064448;28;20111;-78
2021/12/28 08:35:40;;;;;;;1999.90;999.90;;;;;;;;;;5048277;28;20439;-78
2021/12/28 08:38:10;;;;;;;1999.90;999.90;;;;;;;;;;5034540;28;20040;-78
2021/12/28 08:40:36;;;;;;;1999.90;999.90;;;;;;;;;;5050586;28;20064;-78
2021/12/28 08:43:02;;;;;;;1999.90;999.90;;;;;;;;;;5042665;28;20048;-77
2021/12/28 08:45:27;;;;;;;1999.90;999.90;;;;;;;;;;5069153;28;20082;-78
2021/12/28 08:47:53;;;;;;;1999.90;999.90;;;;;;;;;;5053477;28;20028;-78
2021/12/28 08:50:18;;;;;;;1999.90;999.90;;;;;;;;;;5061980;28;20043;-78
2021/12/28 08:52:44;;;;;;;1999.90;999.90;;;;;;;;;;5066860;28;20044;-78
2021/12/28 08:55:10;;;;;;;1999.90;999.90;;;;;;;;;;5033170;28;20025;-78
2021/12/28 08:57:36;;;;;;;1999.90;999.90;;;;;;;;;;5033839;28;20064;-78
2021/12/28 09:00:13;;;;;;;1999.90;999.90;;;;;;;;;;5017176;28;20115;-77
2021/12/28 09:02:39;;;;;;;1999.90;999.90;;;;;;;;;;5062309;28;20063;-80
2021/12/28 09:05:04;;;;;;;1999.90;999.90;;;;;;;;;;5029802;28;20045;-80
2021/12/28 09:07:30;;;;;;;1999.90;999.90;;;;;;;;;;5030057;28;20064;-79
2021/12/28 09:09:55;;;;;;;1999.90;999.90;;;;;;;;;;5032225;28;20480;-79
2021/12/28 09:12:21;;;;;;;1999.90;999.90;;;;;;;;;;5052755;28;20036;-79
2021/12/28 09:14:46;;;;;;;1999.90;999.90;;;;;;;;;;5019277;28;20364;-79
2021/12/28 09:17:12;;;;;;;1999.90;999.90;;;;;;;;;;5054158;28;20036;-79
2021/12/28 09:19:37;;;;;;;1999.90;999.90;;;;;;;;;;5024343;28;20099;-79
2021/12/28 09:22:04;;;;;;;1999.90;999.90;;;;;;;;;;5032993;28;20053;-78
2021/12/28 09:24:29;;;;;;;1999.90;999.90;;;;;;;;;;5016705;28;20056;-79
2021/12/28 09:26:55;;;;;;;1225.20;531.40;;;;;;;;;;5016163;28;20475;-77
2021/12/28 09:29:20;;;;;;;1999.90;999.90;;;;;;;;;;5016352;28;20064;-78
2021/12/28 09:31:46;;;;;;;1999.90;999.90;;;;;;;;;;5016309;28;20048;-78
2021/12/28 09:34:11;;;;;;;1999.90;999.90;;;;;;;;;;5041092;28;20112;-78
2021/12/28 09:36:40;;;;;;;1999.90;999.90;;;;;;;;;;5003225;28;20495;-78
2021/12/28 09:39:06;;;;;;;1999.90;999.90;;;;;;;;;;5036804;28;20033;-78
2021/12/28 09:41:32;;;;;;;1999.90;999.90;;;;;;;;;;5019927;28;20087;-79
2021/12/28 09:43:57;;;;;;;1999.90;999.90;;;;;;;;;;5018159;28;20112;-78
2021/12/28 09:46:23;;;;;;;1999.90;999.90;;;;;;;;;;5018088;28;20422;-76
2021/12/28 09:48:48;;;;;;;1999.90;999.90;;;;;;;;;;5032037;28;20029;-77
2021/12/28 09:51:14;;;;;;;1999.90;999.90;;;;;;;;;;5069186;28;20094;-76
2021/12/28 09:53:39;;;;;;;1999.90;999.90;;;;;;;;;;5019372;28;20036;-77
2021/12/28 09:56:05;;;;;;;1999.90;999.90;;;;;;;;;;5052297;28;20502;-77
2021/12/28 09:58:35;;;;;;;1999.90;999.90;;;;;;;;;;5019713;28;20033;-77
2021/12/28 10:01:01;;;;;;;1999.90;999.90;;;;;;;;;;5015798;28;20036;-77
2021/12/28 10:03:26;;;;;;;1225.35;540.40;;;;;;;;;;5028451;28;20034;-76
2021/12/28 10:05:52;;;;;;;1999.90;999.90;;;;;;;;;;5018419;28;20192;-76
2021/12/28 10:08:22;;;;;;;1999.90;999.90;;;;;;;;;;5035953;28;20029;-77
2021/12/28 10:10:49;;;;;;;1999.90;999.90;;;;;;;;;;5002669;28;20093;-76
2021/12/28 10:13:20;;;;;;;1999.90;999.90;;;;;;;;;;5044676;28;20059;-77
2021/12/28 10:15:46;;;;;;;1999.90;999.90;;;;;;;;;;5018914;28;20044;-76
2021/12/28 10:18:11;;;;;;;1999.90;999.90;;;;;;;;;;5030320;28;20063;-76
2021/12/28 10:20:48;;;;;;;1999.90;999.90;;;;;;;;;;5045979;28;20089;-76
2021/12/28 10:23:15;;;;;;;1999.90;999.90;;;;;;;;;;5042318;28;20020;-76
2021/12/28 10:25:42;;;;;;;1999.90;999.90;;;;;;;;;;5046915;28;20060;-76
2021/12/28 10:28:13;;;;;;;1999.90;999.90;;;;;;;;;;5034341;28;20021;-76
2021/12/28 10:30:47;;;;;;;1999.90;999.90;;;;;;;;;;5019221;28;20883;-77
2021/12/28 10:33:16;;;;;;;1999.90;999.90;;;;;;;;;;5035940;28;20052;-76
2021/12/28 10:35:58;;;;;;;1213.60;545.38;;;;;;;;;;5015459;28;20042;-76
2021/12/28 10:38:25;;;;;;;;;;;;;;;;;;5021337;28;20493;-76
2021/12/28 10:40:54;;;;;;;1253.18;551.88;;;;;;;;;;5034455;28;19909;-77
2021/12/28 10:43:27;;;;;;;1999.90;999.90;;;;;;;;;;5035678;28;20047;-76
2021/12/28 10:45:59;;;;;;;1999.90;999.90;;;;;;;;;;5015779;28;20077;-77
2021/12/28 10:48:31;;;;;;;1999.90;999.90;;;;;;;;;;5031341;28;20491;-76
2021/12/28 10:51:02;;;;;;;1568.18;756.30;;;;;;;;;;5048373;28;20379;-77
2021/12/28 10:53:36;;;;;;;1999.90;999.90;;;;;;;;;;5034515;28;20036;-77
2021/12/28 10:56:03;;;;;;;1569.00;757.40;;;;;;;;;;5019590;28;20123;-77
2021/12/28 10:58:33;;;;;;;1999.90;999.90;;;;;;;;;;5018762;28;20025;-77
2021/12/28 11:01:26;;;;;;;1999.90;999.90;;;;;;;;;;5034765;28;20112;-77
2021/12/28 11:03:56;;;;;;;1221.03;521.63;;;;;;;;;;5050791;28;20558;-77
2021/12/28 11:06:25;;;;;;;1999.90;999.90;;;;;;;;;;5032362;28;20040;-77
2021/12/28 11:08:52;;;;;;;1590.93;766.78;;;;;;;;;;5054428;28;20085;-77
2021/12/28 11:11:20;;;;;;;1999.90;999.90;;;;;;;;;;5054680;28;20024;-79
2021/12/28 11:13:45;;;;;;;1999.90;999.90;;;;;;;;;;5021858;28;20039;-83
2021/12/28 11:16:12;;;;;;;1999.90;999.90;;;;;;;;;;5028732;28;20812;-81
2021/12/28 11:18:45;;;;;;;1999.90;999.90;;;;;;;;;;5001440;28;20025;-82
2021/12/28 11:21:13;;;;;;;1999.90;999.90;;;;;;;;;;5034102;28;20060;-81
2021/12/28 11:23:38;;;;;;;1231.07;529.22;;;;;;;;;;5037736;28;20110;-78
2021/12/28 11:26:05;;;;;;;1999.90;999.90;;;;;;;;;;5030109;28;20025;-79
2021/12/28 11:28:31;;;;;;;1999.90;999.90;;;;;;;;;;5050335;28;20037;-79
2021/12/28 11:31:01;;;;;;;1999.90;999.90;;;;;;;;;;5034940;28;20044;-78
2021/12/28 11:33:26;;;;;;;1999.90;999.90;;;;;;;;;;5033682;28;20032;-78
2021/12/28 11:35:52;;;;;;;1999.90;999.90;;;;;;;;;;5014368;28;20490;-79
2021/12/28 11:38:17;;;;;;;538.13;77.45;;;;;;;;;;5014059;28;20033;-80
2021/12/28 11:40:43;;;;;;;1999.90;999.90;;;;;;;;;;5014255;28;20021;-81
2021/12/28 11:43:09;;;;;;;1999.90;999.90;;;;;;;;;;5047215;28;20061;-82
2021/12/28 11:45:35;;;;;;;1999.90;999.90;;;;;;;;;;5020979;28;20047;-81
2021/12/28 11:48:00;;;;;;;1999.90;999.90;;;;;;;;;;5038281;28;20046;-81
2021/12/28 11:50:25;;;;;;;431.83;70.80;;;;;;;;;;5017184;28;20395;-80
2021/12/28 11:52:52;;;;;;;1999.90;999.90;;;;;;;;;;5034998;28;20056;-79
2021/12/28 11:55:19;;;;;;;1999.90;999.90;;;;;;;;;;5054464;28;20024;-79
2021/12/28 11:57:51;;;;;;;1999.90;999.90;;;;;;;;;;5035541;28;20520;-79
2021/12/28 12:00:19;;;;;;;1999.90;999.90;;;;;;;;;;5020519;28;20025;-80
2021/12/28 12:02:47;;;;;;;1620.85;773.08;;;;;;;;;;5024003;28;20037;-80
2021/12/28 12:05:20;;;;;;;1999.90;999.90;;;;;;;;;;5019475;28;20060;-80
2021/12/28 12:07:46;;;;;;;;;;;;;;;;;;5033426;28;20047;-80
2021/12/28 12:10:17;;;;;;;1999.90;999.90;;;;;;;;;;5050167;28;19905;-80
2021/12/28 12:12:42;;;;;;;1999.90;999.90;;;;;;;;;;5017688;28;20117;-79
2021/12/28 12:15:09;;;;;;;1999.90;999.90;;;;;;;;;;5055057;28;20359;-79
2021/12/28 12:17:39;;;;;;;1999.90;999.90;;;;;;;;;;5035160;28;20496;-80
2021/12/28 12:20:07;;;;;;;1999.90;999.90;;;;;;;;;;5018167;28;20222;-79
2021/12/28 12:22:33;;;;;;;1999.90;999.90;;;;;;;;;;5033475;28;20108;-80
2021/12/28 12:25:06;;;;;;;1577.45;757.85;;;;;;;;;;5033782;28;20025;-77
2021/12/28 12:27:48;;;;;;;1999.90;999.90;;;;;;;;;;5032729;28;20116;-77
2021/12/28 12:30:28;;;;;;;1999.90;999.90;;;;;;;;;;5050517;28;20028;-77
2021/12/28 12:33:06;;;;;;;1999.90;999.90;;;;;;;;;;5051588;28;20099;-77
2021/12/28 12:35:32;;;;;;;1999.90;999.90;;;;;;;;;;5051248;28;20036;-76
2021/12/28 12:37:59;;;;;;;1999.90;999.90;;;;;;;;;;5033079;28;20523;-76
2021/12/28 12:40:58;;;;;;;1999.90;999.90;;;;;;;;;;5033686;28;20115;-77
2021/12/28 12:43:45;;;;;;;1999.90;999.90;;;;;;;;;;5033896;28;20082;-77
2021/12/28 12:46:28;;;;;;;1999.90;999.90;;;;;;;;;;5045728;28;20045;-77
2021/12/28 12:48:54;;;;;;;1999.90;999.90;;;;;;;;;;5050051;28;20379;-77
2021/12/28 12:51:22;;;;;;;1999.90;999.90;;;;;;;;;;5049853;28;20029;-78
2021/12/28 12:54:00;;;;;;;1999.90;999.90;;;;;;;;;;5054390;28;20100;-80
2021/12/28 12:56:36;;;;;;;1999.90;999.90;;;;;;;;;;5037173;28;20025;-79
2021/12/28 12:59:04;;;;;;;1999.90;999.90;;;;;;;;;;5036926;28;20055;-80
2021/12/28 13:01:39;;;;;;;1999.90;999.90;;;;;;;;;;5020174;28;20067;-79
2021/12/28 13:04:24;;;;;;;384.95;53.15;;;;;;;;;;5033294;28;20052;-80
2021/12/28 13:07:12;;;;;;;1999.90;999.90;;;;;;;;;;5078068;28;20043;-80
2021/12/28 13:09:39;;;;;;;1999.90;999.90;;;;;;;;;;5038248;28;20037;-80
2021/12/28 13:12:06;;;;;;;1999.90;999.90;;;;;;;;;;5020603;28;20515;-79
2021/12/28 13:14:32;;;;;;;1999.90;999.90;;;;;;;;;;5036535;28;20032;-78
2021/12/28 13:17:14;;;;;;;1999.90;999.90;;;;;;;;;;5036263;28;20390;-82
2021/12/28 13:20:06;;;;;;;1999.90;999.90;;;;;;;;;;5018563;28;20041;-80
2021/12/28 13:22:40;;;;;;;1999.90;999.90;;;;;;;;;;5048267;28;20053;-79
2021/12/28 13:25:09;;;;;;;1999.90;999.90;;;;;;;;;;5031820;28;20040;-81
2021/12/28 13:27:35;;;;;;;1999.90;999.90;;;;;;;;;;5052253;28;20071;-78
2021/12/28 13:30:01;;;;;;;1999.90;999.90;;;;;;;;;;5036499;28;20028;-78
2021/12/28 13:32:34;;;;;;;1999.90;999.90;;;;;;;;;;5020573;28;20067;-78
2021/12/28 13:35:08;;;;;;;1323.18;541.17;;;;;;;;;;5018413;28;20044;-77
2021/12/28 13:37:40;;;;;;;1999.90;999.90;;;;;;;;;;5053700;28;20162;-78
2021/12/28 13:40:24;;;;;;;1999.90;999.90;;;;;;;;;;5035994;28;20081;-78
2021/12/28 13:43:02;;;;;;;1999.90;999.90;;;;;;;;;;5069502;28;20052;-78
2021/12/28 13:45:32;;;;;;;1999.90;999.90;;;;;;;;;;5072191;28;20063;-78
2021/12/28 13:47:58;;;;;;;1999.90;999.90;;;;;;;;;;5038960;28;20451;-79